createdAt,value
2019-01-15T17:33:22.729Z,23.27
2019-01-15T17:36:02.442Z,22.93
2019-01-15T17:38:48.285Z,22.84
2019-01-15T17:41:38.207Z,22.79
2019-01-15T17:44:31.108Z,22.78
2019-01-15T17:47:18.011Z,22.77
2019-01-15T17:50:03.087Z,22.76
2019-01-15T17:52:49.919Z,22.70
2019-01-15T17:55:48.926Z,22.70
2019-01-15T17:58:23.853Z,22.69
2019-01-15T18:01:10.730Z,22.69
2019-01-15T18:04:12.866Z,22.69
2019-01-15T18:06:58.762Z,22.68
2019-01-15T18:09:36.690Z,22.66
2019-01-15T18:12:22.181Z,22.64
2019-01-15T18:15:06.110Z,22.59
2019-01-15T18:17:46.385Z,22.57
2019-01-15T18:20:30.622Z,22.61
2019-01-15T18:23:15.220Z,22.62
2019-01-15T18:26:14.188Z,22.71
2019-01-15T18:28:58.071Z,22.67
2019-01-15T18:31:39.147Z,22.76
2019-01-15T18:34:30.723Z,22.73
2019-01-15T18:37:23.819Z,22.73
2019-01-15T18:40:22.573Z,22.74
2019-01-15T18:43:17.538Z,22.75
2019-01-15T18:45:53.477Z,22.81
2019-01-15T18:48:39.439Z,22.81
2019-01-15T18:51:18.238Z,22.78
2019-01-15T18:54:03.398Z,22.82
2019-01-15T18:56:48.838Z,22.88
2019-01-15T18:59:38.289Z,22.88
2019-01-15T19:02:34.388Z,22.88
2019-01-15T19:05:30.795Z,22.87
2019-01-15T19:08:17.626Z,22.89
2019-01-15T19:11:03.409Z,22.89
2019-01-15T19:13:53.126Z,22.89
2019-01-15T19:16:35.327Z,22.91
2019-01-15T19:19:20.786Z,22.90
2019-01-15T19:22:12.475Z,22.92
2019-01-15T19:24:56.214Z,22.93
2019-01-15T19:27:42.105Z,22.94
2019-01-15T19:30:28.806Z,22.93
2019-01-15T19:33:18.879Z,22.93
2019-01-15T19:36:10.820Z,22.94
2019-01-15T19:39:00.604Z,22.94
2019-01-15T19:41:55.499Z,22.95
2019-01-15T19:44:42.851Z,22.92
2019-01-15T19:47:28.526Z,22.93
2019-01-15T19:50:13.202Z,22.94
2019-01-15T19:53:00.912Z,22.93
2019-01-15T19:55:41.618Z,22.92
2019-01-15T19:58:40.851Z,22.92
2019-01-15T20:01:17.998Z,22.93
2019-01-15T20:03:52.362Z,22.96
2019-01-15T20:06:54.515Z,22.95
2019-01-15T20:09:44.520Z,22.97
2019-01-15T20:12:30.627Z,23.00
2019-01-15T20:15:09.526Z,23.02
2019-01-15T20:17:50.348Z,23.04
2019-01-15T20:20:29.550Z,23.06
2019-01-15T20:23:15.162Z,23.04
2019-01-15T20:26:01.974Z,23.06
2019-01-15T20:28:46.029Z,23.05
2019-01-15T20:31:23.353Z,23.08
2019-01-15T20:34:06.155Z,23.07
2019-01-15T20:37:11.411Z,23.05
2019-01-15T20:40:10.402Z,23.02
2019-01-15T20:42:46.915Z,23.03
2019-01-15T20:45:37.182Z,23.03
2019-01-15T20:48:17.179Z,23.02
2019-01-15T20:50:55.267Z,23.02
2019-01-15T20:53:43.619Z,23.02
2019-01-15T20:56:29.581Z,22.99
2019-01-15T20:59:11.193Z,22.98
2019-01-15T21:02:00.266Z,23.00
2019-01-15T21:05:00.266Z,23.00
2019-01-15T21:07:59.358Z,23.01
2019-01-15T21:10:46.182Z,23.03
2019-01-15T21:13:33.038Z,23.01
2019-01-15T21:16:18.738Z,22.94
2019-01-15T21:19:04.606Z,22.96
2019-01-15T21:21:51.423Z,22.98
2019-01-15T21:24:34.538Z,22.96
2019-01-15T21:27:30.527Z,22.94
2019-01-15T21:30:07.422Z,22.93
2019-01-15T21:32:52.942Z,22.87
2019-01-15T21:35:38.655Z,22.89
2019-01-15T21:38:15.667Z,22.89
2019-01-15T21:47:13.170Z,22.87
2019-01-15T21:50:15.401Z,22.74
2019-01-15T21:53:05.546Z,22.77
2019-01-15T21:55:42.557Z,22.88
2019-01-15T21:58:20.281Z,22.89
2019-01-15T22:01:13.879Z,22.85
2019-01-15T22:03:57.985Z,22.84
2019-01-15T22:06:53.855Z,22.80
2019-01-15T22:09:40.986Z,22.78
2019-01-15T22:12:26.650Z,22.75
2019-01-15T22:15:13.973Z,22.75
2019-01-15T22:17:51.486Z,22.76
2019-01-15T22:20:44.920Z,22.76
2019-01-15T22:23:29.487Z,22.72
2019-01-15T22:26:15.310Z,22.72
2019-01-15T22:29:02.779Z,22.71
2019-01-15T22:31:48.974Z,22.70
2019-01-15T22:34:29.024Z,22.70
2019-01-15T22:37:10.310Z,22.72
2019-01-15T22:39:56.151Z,22.75
2019-01-15T22:42:49.172Z,22.79
2019-01-15T22:45:36.101Z,22.78
2019-01-15T22:48:23.495Z,22.76
2019-01-15T22:51:04.566Z,22.75
2019-01-15T22:53:44.732Z,22.74
2019-01-15T22:56:28.474Z,22.81
2019-01-15T23:00:36.211Z,21.79
2019-01-15T23:03:21.815Z,20.54
2019-01-15T23:06:03.562Z,20.24
2019-01-15T23:08:46.323Z,20.19
2019-01-15T23:11:32.618Z,20.18
2019-01-15T23:14:28.195Z,20.17
2019-01-15T23:17:05.371Z,20.17
2019-01-15T23:19:52.218Z,20.17
2019-01-15T23:22:38.439Z,20.15
2019-01-15T23:25:24.647Z,20.13
2019-01-15T23:28:08.326Z,20.13
2019-01-15T23:31:01.368Z,20.12
2019-01-15T23:33:47.110Z,20.11
2019-01-15T23:36:35.735Z,20.11
2019-01-15T23:39:23.159Z,20.10
2019-01-15T23:42:08.594Z,20.08
2019-01-15T23:44:55.782Z,20.08
2019-01-15T23:47:57.975Z,20.03
2019-01-15T23:50:57.884Z,20.06
2019-01-15T23:53:34.974Z,20.06
2019-01-15T23:56:14.976Z,20.05
2019-01-15T23:58:51.223Z,20.06
